KFMY/FMY METAR and TAF weather

Enter ICAO airport designator
Station Type Date Time Source
KFMY METAR 2020/04/04 05:53 UTC NOAA

KFMY 040553Z AUTO 00000KT 10SM CLR 22/18 A2995 RMK AO2 SLP144 T02170183 10250 20211 56009


Station Type Date Time Source
KFMY Decoded METAR 2020/04/04 05:53 UTC NOAA

FORT MYERS PAGE FIELD, FL, United States (KFMY) 26-35N 081-52W 4M
Apr 04, 2020 - 01:53 AM EDT / 2020.04.04 0553 UTC
Wind: Calm:0
Visibility: 10 mile(s):0
Sky conditions: clear
Temperature: 71.1 F (21.7 C)
Dew Point: 64.9 F (18.3 C)
Relative Humidity: 81%
Pressure (altimeter): 29.95 in. Hg (1014 hPa)
Pressure tendency: 0.03 inches (0.9 hPa) lower than three hours ago
ob: KFMY 040553Z AUTO 00000KT 10SM CLR 22/18 A2995 RMK AO2 SLP144 T02170183 10250 20211 56009
cycle: 6

Station Type Date Time Source
KFMY TAF 2020/04/04 06:30 UTC NOAA

TAF KFMY 040527Z 0406/0506 VRB03KT P6SM SCT250
FM041800 27012KT P6SM SCT035 SCT250
FM050200 29005KT P6SM FEW015 SCT250

Example: see airport list